Detall de PIREP

Printer-friendly versionPDF version

[2013/09/01 14:47:00]
Flight IATA:CT0001
Pilot Number:012
Company ICAO:CAT
Aircraft Type:B744/E
PAX:426
Departing Airport: LEBL
Destination Airport: LEAL
Alternate Airport:LEPA
Online: VATSIM
Route:LOTOS UM985 VLC
Flight Level:F290
No Slew and time accel
No pause
Crash detect
Detect pilot in Cockpit between each 30 and 45 minutes
14:47 Zero fuel Weight: 477624 Lbs, Fuel Weight: 128622 Lbs
14:47 VATSIM:LEBL 011430Z 17008KT 130V210 9999 FEW040 27/18 Q1021 NOSIG
14:47 VATSIM:LEAL 011430Z 11006KT 050V160 9999 FEW025 28/16 Q1021 NOSIG
14:47 VOICE CATALONIAN
14:49 Parking Brakes off
14:55 Take-off
14:55 Take off Weight: 604042 Lbs
14:55 Wind: 159º @ 008 Knots Heading: 244º
14:55 POS N41º 17´ 08´´ E002º 05´ 04´´
14:55 Gear Up: 176 Knots
14:55 Flaps:3 at 177 Knots
14:56 Flaps:2 at 212 Knots
14:56 Flaps:1 at 220 Knots
14:57 Flaps:0 at 254 Knots
15:06 TOC
15:06 Fuel Weight: 116443 Lb
15:10 Wind:308º@024 Knots Heading: 229º Ground Speed: 483 Knots Altitude 29202 ft
15:16 TOD
15:16 Fuel Weight: 112684 Lb
15:25 Wind:060º@009 Knots Heading: 194º Ground Speed: 343 Knots Altitude 11830 ft
15:28 Gear Down: 231 Knots
15:28 Gear Up: 226 Knots
15:28 Flaps:1 at 226 Knots
15:30 Flaps:2 at 210 Knots
15:30 Flaps:3 at 207 Knots
15:32 Flaps:4 at 183 Knots
15:33 Gear Down: 170 Knots
15:34 Flaps:5 at 157 Knots
15:34 Flaps:6 at 133 Knots
15:39 TouchDown:Rate -262 ft/min Speed: 134 Knots
15:39 VATSIM:LEAL 011530Z 10007KT 040V170 9999 FEW035 28/16 Q1021 NOSIG
15:39 Land
15:39 Wind:106º@006 Knots
15:39 Heading: 104º
15:39 Flight Duration: 00:44
15:39 Landing Weight: 583702 Lbs
15:39 POS N38º 16´ 55´´ W000º 33´ 24´´
15:42 Parking brakes on
15:42 Block to Block Duration: 00:53
15:42 Final Fuel: 105529 Lbls
15:42 Spent Fuel: 23093 Lbls
15:42 Flight Length: 255 NM
15:42 TOD Land Length: 107 NM

Exportar CSV

Powered by Drupal - Modified by Danger4k